Wisdom, Missouri
Current Conditions -  °F | °C
As of 7:15 PM on Sunday 23 Nov 2014 (Local Time) from KGLY Reporting Station
Light Rain Light Rain  
Wind Chill: 54°   Ceiling: 100
Heat Index: 54°   Visibility: 0.75mi
Dew Point: 54°   Wind: 18mph
Humidity: 100%   Direction: 310°NW
Pressure: 29.32"   Gusts: 29mph
Location:  38.3166°N, 93.2711°W
Report Text: KGLY 240115Z AUTO 31016G25KT 3/4SM -RA OVC001 12/12 A2932 RMK AO2 LTG DSNT SE AND S
Loading
Personal Weather Stations






























Interactive Weather Map New forecast layout! Learn more

10-Day Weather Forecast

Advertisements
Track Severe Weather on mobile